Time;durP1;ratioP1;P1;durP2;ratioP2;P2;SDS_P1;SDS_P2;PMS_P1;PMS_P2;Temp;Humidity;BMP_temperature;BMP_pressure;BME280_temperature;BME280_humidity;BME280_pressure;Samples;Min_cycle;Max_cycle;Signal;HPM_P1;HPM_P2
2023/10/14 00:02:40;;;;;;;21.83;8.02;;;17.80;99.90;;;;;;5095100;28;20047;-77
2023/10/14 00:05:26;;;;;;;17.13;7.13;;;17.80;99.90;;;;;;5067696;28;20132;-76
2023/10/14 00:08:13;;;;;;;10.85;7.10;;;17.70;99.90;;;;;;5072933;28;20050;-76
2023/10/14 00:11:00;;;;;;;15.15;6.68;;;17.60;99.90;;;;;;5080498;28;20032;-76
2023/10/14 00:13:49;;;;;;;15.52;6.55;;;17.60;99.90;;;;;;5058460;28;20052;-76
2023/10/14 00:16:36;;;;;;;15.00;6.85;;;17.70;99.90;;;;;;5076677;28;20474;-76
2023/10/14 00:19:22;;;;;;;13.45;6.55;;;17.70;99.90;;;;;;5067093;28;20049;-76
2023/10/14 00:22:08;;;;;;;15.52;7.13;;;17.60;99.90;;;;;;5071035;28;20047;-76
2023/10/14 00:24:56;;;;;;;12.98;6.60;;;17.70;99.90;;;;;;5080538;28;20769;-76
2023/10/14 00:27:43;;;;;;;14.13;6.27;;;17.70;99.90;;;;;;5075924;28;20039;-76
2023/10/14 00:30:31;;;;;;;15.88;5.97;;;17.70;99.90;;;;;;5094179;28;20411;-75
2023/10/14 00:33:20;;;;;;;15.15;6.30;;;17.70;99.90;;;;;;5085508;28;20535;-76
2023/10/14 00:36:10;;;;;;;14.15;6.25;;;17.80;99.90;;;;;;5071816;28;20481;-76
2023/10/14 00:39:12;;;;;;;16.63;7.03;;;17.80;99.90;;;;;;5092672;28;20046;-76
2023/10/14 00:41:59;;;;;;;12.73;6.30;;;17.80;99.90;;;;;;5083647;28;20043;-76
2023/10/14 00:44:46;;;;;;;15.23;5.97;;;17.90;99.90;;;;;;5083295;28;20544;-76
2023/10/14 00:47:33;;;;;;;13.23;5.57;;;17.80;99.90;;;;;;5076525;28;20044;-75
2023/10/14 00:50:33;;;;;;;12.23;5.20;;;17.90;99.90;;;;;;5077178;28;20043;-76
2023/10/14 00:53:20;;;;;;;11.80;5.65;;;17.90;99.90;;;;;;5077367;28;20124;-75
2023/10/14 00:56:06;;;;;;;14.85;5.72;;;17.90;99.90;;;;;;5079454;28;20044;-75
2023/10/14 00:58:58;;;;;;;12.50;6.10;;;17.90;99.90;;;;;;5080350;28;20352;-75
2023/10/14 01:02:26;;;;;;;14.65;6.22;;;17.90;99.90;;;;;;5086553;28;20202;-75
2023/10/14 01:04:57;;;;;;;9.00;5.78;;;17.90;99.90;;;;;;5088551;28;20039;-75
2023/10/14 01:07:43;;;;;;;11.80;5.78;;;17.90;99.90;;;;;;5063052;28;20044;-75
2023/10/14 01:10:30;;;;;;;15.07;6.90;;;17.80;99.90;;;;;;5073958;28;20483;-76
2023/10/14 01:13:24;;;;;;;12.98;6.70;;;17.80;99.90;;;;;;5095072;28;20387;-75
2023/10/14 01:16:12;;;;;;;11.77;5.72;;;17.80;99.90;;;;;;5068595;28;20040;-75
2023/10/14 01:19:01;;;;;;;15.93;5.87;;;17.80;99.90;;;;;;5063649;28;20134;-76
2023/10/14 01:21:51;;;;;;;12.88;6.10;;;17.80;99.90;;;;;;5091847;28;20046;-76
2023/10/14 01:24:39;;;;;;;10.63;5.32;;;17.80;99.90;;;;;;5057293;28;20044;-75
2023/10/14 01:27:34;;;;;;;11.02;5.75;;;17.80;99.90;;;;;;5096206;28;20050;-75
2023/10/14 01:30:25;;;;;;;12.88;5.43;;;17.90;99.90;;;;;;5092017;28;20040;-76
2023/10/14 01:33:16;;;;;;;12.43;5.72;;;17.80;99.90;;;;;;5074186;28;20052;-76
2023/10/14 01:36:02;;;;;;;14.40;6.07;;;17.80;99.90;;;;;;5093298;28;20118;-76
2023/10/14 01:38:57;;;;;;;9.90;5.10;;;17.90;99.90;;;;;;5085956;28;20535;-76
2023/10/14 01:41:44;;;;;;;7.78;4.38;;;17.90;99.90;;;;;;5098171;28;20067;-76
2023/10/14 01:44:31;;;;;;;9.38;4.80;;;17.90;99.90;;;;;;5078338;28;20043;-75
2023/10/14 01:47:17;;;;;;;13.35;5.05;;;17.90;99.90;;;;;;5055777;28;20063;-75
2023/10/14 01:50:05;;;;;;;10.40;5.18;;;17.90;99.90;;;;;;5062765;28;20480;-75
2023/10/14 01:52:52;;;;;;;12.43;4.70;;;17.90;99.90;;;;;;5053416;28;20654;-75
2023/10/14 01:55:41;;;;;;;9.15;4.70;;;17.90;99.90;;;;;;5051163;28;20118;-75
2023/10/14 02:01:15;;;;;;;9.52;4.80;;;18.00;99.90;;;;;;5068869;28;20036;-75
2023/10/14 02:04:02;;;;;;;11.98;4.25;;;18.00;99.90;;;;;;5036604;28;20059;-75
2023/10/14 02:07:02;;;;;;;10.63;5.00;;;18.00;99.90;;;;;;5069121;28;20044;-75
2023/10/14 02:09:48;;;;;;;9.55;4.40;;;18.00;99.90;;;;;;5072024;28;20082;-75
2023/10/14 02:12:35;;;;;;;9.75;4.85;;;18.00;99.90;;;;;;5065639;28;20033;-75
2023/10/14 02:15:21;;;;;;;13.40;5.05;;;18.00;99.90;;;;;;5064203;28;20126;-75
2023/10/14 02:18:09;;;;;;;13.45;5.32;;;18.10;99.90;;;;;;5052270;28;20362;-75
2023/10/14 02:20:56;;;;;;;19.00;5.73;;;18.00;99.90;;;;;;5069611;28;20098;-75
2023/10/14 02:23:45;;;;;;;11.65;4.85;;;18.10;99.90;;;;;;5072048;28;20048;-76
2023/10/14 02:26:32;;;;;;;8.98;4.88;;;18.10;99.90;;;;;;5060064;28;20037;-75
2023/10/14 02:29:18;;;;;;;15.27;5.38;;;18.10;99.90;;;;;;5060249;28;20036;-75
2023/10/14 02:32:05;;;;;;;10.05;4.82;;;18.10;99.90;;;;;;5056674;28;20373;-75
2023/10/14 02:34:51;;;;;;;12.98;4.95;;;18.10;99.90;;;;;;5054944;28;20481;-75
2023/10/14 02:37:37;;;;;;;9.18;4.97;;;18.10;99.90;;;;;;5070437;28;20177;-75
2023/10/14 02:40:26;;;;;;;13.63;5.80;;;18.10;99.90;;;;;;5067193;28;20040;-75
2023/10/14 02:43:16;;;;;;;13.68;4.88;;;18.10;99.90;;;;;;5054312;28;20123;-75
2023/10/14 02:46:04;;;;;;;12.23;4.93;;;18.10;99.90;;;;;;5071826;28;20044;-75
2023/10/14 02:48:52;;;;;;;18.88;5.60;;;18.10;99.90;;;;;;5081800;28;20036;-75
2023/10/14 02:54:27;;;;;;;14.35;5.35;;;18.10;99.90;;;;;;5094165;28;20101;-76
2023/10/14 03:00:11;;;;;;;4.35;1.73;;;17.00;99.90;;;;;;5095637;28;20031;-76
2023/10/14 03:03:03;;;;;;;4.53;1.13;;;15.30;99.90;;;;;;5063303;28;20050;-76
2023/10/14 03:05:52;;;;;;;3.42;1.00;;;14.30;99.90;;;;;;5106815;28;20077;-76
2023/10/14 03:08:38;;;;;;;3.30;1.35;;;13.80;99.90;;;;;;5112014;28;20337;-75
2023/10/14 03:11:26;;;;;;;1.50;0.80;;;13.60;99.90;;;;;;5078386;28;20468;-75
2023/10/14 03:14:13;;;;;;;2.72;1.63;;;13.50;99.90;;;;;;5094018;28;20047;-76
2023/10/14 03:17:00;;;;;;;2.40;0.80;;;13.40;99.90;;;;;;5080710;28;20032;-75
2023/10/14 03:19:49;;;;;;;5.18;1.00;;;13.30;99.90;;;;;;5107813;28;20134;-75
2023/10/14 03:22:35;;;;;;;3.95;0.90;;;13.30;99.90;;;;;;5061000;28;20047;-75
2023/10/14 03:25:24;;;;;;;2.45;1.05;;;13.40;99.90;;;;;;5073193;28;20040;-76
2023/10/14 03:28:14;;;;;;;2.78;0.80;;;13.60;99.90;;;;;;5085076;28;20032;-76
2023/10/14 03:31:00;;;;;;;3.88;0.98;;;13.70;99.90;;;;;;5085404;28;20650;-76
2023/10/14 03:33:46;;;;;;;2.78;1.23;;;13.70;99.90;;;;;;5082257;28;20122;-75
2023/10/14 03:36:32;;;;;;;4.47;0.98;;;13.80;99.90;;;;;;5078293;28;20039;-76
2023/10/14 03:39:28;;;;;;;6.30;1.10;;;13.70;99.90;;;;;;5069329;28;20531;-76
2023/10/14 03:42:15;;;;;;;2.17;1.05;;;13.70;99.90;;;;;;5085040;28;20048;-75
2023/10/14 03:45:06;;;;;;;4.75;1.40;;;13.70;99.90;;;;;;5067239;28;20059;-75
2023/10/14 03:47:54;;;;;;;5.00;1.25;;;13.70;99.90;;;;;;5106591;28;20498;-75
2023/10/14 03:50:46;;;;;;;6.03;1.27;;;13.60;99.90;;;;;;5064039;28;20118;-75
2023/10/14 03:53:32;;;;;;;6.35;2.03;;;13.60;99.90;;;;;;5062939;28;20578;-75
2023/10/14 03:56:21;;;;;;;4.38;1.30;;;13.50;99.90;;;;;;5091212;28;20416;-75
2023/10/14 03:59:12;;;;;;;2.80;0.90;;;13.40;99.90;;;;;;5077534;28;20082;-75
2023/10/14 04:01:57;;;;;;;3.42;0.93;;;13.50;99.90;;;;;;5086483;28;20109;-75
2023/10/14 04:04:44;;;;;;;6.88;1.73;;;13.50;99.90;;;;;;5101253;28;20048;-75
2023/10/14 04:07:31;;;;;;;6.93;1.20;;;13.40;99.90;;;;;;5081050;28;20071;-75
2023/10/14 04:10:22;;;;;;;4.35;1.15;;;13.40;99.90;;;;;;5083646;28;20549;-75
2023/10/14 04:13:13;;;;;;;4.80;1.13;;;13.30;99.90;;;;;;5092858;28;20058;-75
2023/10/14 04:15:59;;;;;;;7.07;1.27;;;13.30;99.90;;;;;;5077240;28;20040;-72
2023/10/14 04:18:47;;;;;;;4.10;1.75;;;13.40;99.90;;;;;;5107292;28;20031;-72
2023/10/14 04:21:36;;;;;;;4.67;1.13;;;13.20;99.90;;;;;;5056013;28;20036;-72
2023/10/14 04:27:35;;;;;;;3.35;1.40;;;13.20;99.90;;;;;;5105185;28;20039;-72
2023/10/14 04:33:22;;;;;;;3.45;1.20;;;13.30;99.90;;;;;;5091942;28;20050;-72
2023/10/14 04:39:05;;;;;;;5.20;1.30;;;13.30;99.90;;;;;;5088011;28;20036;-72
2023/10/14 04:41:57;;;;;;;2.55;0.93;;;13.30;99.90;;;;;;5081012;28;20059;-72
2023/10/14 04:45:04;;;;;;;5.13;1.25;;;13.30;99.90;;;;;;5095291;28;20416;-71
2023/10/14 04:47:52;;;;;;;3.15;1.30;;;13.20;99.90;;;;;;5080438;28;20048;-72
2023/10/14 04:50:41;;;;;;;3.28;1.27;;;13.20;99.90;;;;;;5088276;28;20036;-72
2023/10/14 04:53:27;;;;;;;4.72;1.23;;;13.20;99.90;;;;;;5075154;28;20173;-72
2023/10/14 04:56:21;;;;;;;8.77;1.90;;;13.10;99.90;;;;;;5085719;28;20099;-71
2023/10/14 04:59:08;;;;;;;6.20;1.70;;;12.90;99.90;;;;;;5079388;28;20119;-72
2023/10/14 05:01:55;;;;;;;10.65;1.70;;;12.80;99.90;;;;;;5059951;28;20357;-72
2023/10/14 05:04:41;;;;;;;9.33;1.70;;;12.70;99.90;;;;;;5084337;28;20492;-72
2023/10/14 05:07:28;;;;;;;10.52;2.83;;;12.70;99.90;;;;;;5076769;28;20032;-72
2023/10/14 05:10:15;;;;;;;10.45;1.75;;;12.70;99.90;;;;;;5056433;28;20737;-72
2023/10/14 05:13:09;;;;;;;6.60;1.63;;;12.70;99.90;;;;;;5069577;28;20063;-72
2023/10/14 05:16:14;;;;;;;11.43;2.58;;;12.60;99.90;;;;;;5064976;28;20126;-75
2023/10/14 05:19:06;;;;;;;16.13;3.03;;;12.60;99.90;;;;;;5082785;28;20032;-75
2023/10/14 05:22:37;;;;;;;11.30;2.15;;;12.60;99.90;;;;;;5075567;28;20131;-75
2023/10/14 05:25:09;;;;;;;10.50;2.08;;;12.60;99.90;;;;;;5082566;28;20418;-75
2023/10/14 05:27:55;;;;;;;15.15;2.50;;;12.60;99.90;;;;;;5087161;28;20039;-75
2023/10/14 05:30:41;;;;;;;9.07;1.85;;;12.60;99.90;;;;;;5080914;28;20047;-75
2023/10/14 05:33:31;;;;;;;7.15;1.77;;;12.60;99.90;;;;;;5069212;28;20361;-75
2023/10/14 05:36:17;;;;;;;8.18;1.40;;;12.70;99.90;;;;;;5088571;28;20487;-75
2023/10/14 05:39:03;;;;;;;7.05;1.50;;;12.60;99.90;;;;;;5057852;28;20050;-75
2023/10/14 05:41:55;;;;;;;11.40;1.80;;;12.60;99.90;;;;;;5059045;28;20079;-75
2023/10/14 05:44:47;;;;;;;13.15;2.55;;;12.60;99.90;;;;;;5064047;28;20127;-75
2023/10/14 05:47:33;;;;;;;10.15;1.50;;;12.70;99.90;;;;;;5072492;28;20068;-75
2023/10/14 05:50:19;;;;;;;12.40;1.88;;;12.60;99.90;;;;;;5032633;28;20109;-75
2023/10/14 05:53:07;;;;;;;6.38;1.75;;;12.60;99.90;;;;;;5049867;28;20558;-75
2023/10/14 05:56:09;;;;;;;11.05;2.15;;;12.50;99.90;;;;;;5057861;28;20647;-75
2023/10/14 05:58:55;;;;;;;13.50;2.15;;;12.50;99.90;;;;;;5041412;28;20108;-76
2023/10/14 06:01:45;;;;;;;9.00;1.85;;;12.40;99.90;;;;;;5040926;28;20040;-76
2023/10/14 06:04:32;;;;;;;13.70;2.50;;;12.40;99.90;;;;;;5049302;28;20045;-75
2023/10/14 06:07:18;;;;;;;9.40;2.30;;;12.40;99.90;;;;;;5066017;28;20037;-75
2023/10/14 06:10:10;;;;;;;10.52;2.45;;;12.40;99.90;;;;;;5054710;28;20047;-75
2023/10/14 06:12:56;;;;;;;9.00;2.00;;;12.30;99.90;;;;;;5052436;28;20091;-75
2023/10/14 06:15:44;;;;;;;14.40;2.83;;;12.30;99.90;;;;;;5058236;28;20509;-75
2023/10/14 06:18:30;;;;;;;13.82;2.42;;;12.30;99.90;;;;;;5066853;28;20440;-75
2023/10/14 06:21:16;;;;;;;14.88;2.60;;;12.20;99.90;;;;;;5046357;28;20147;-75
2023/10/14 06:24:04;;;;;;;14.82;2.08;;;12.10;99.90;;;;;;5070196;28;20037;-75
2023/10/14 06:26:58;;;;;;;12.23;2.17;;;12.10;99.90;;;;;;5068348;28;20050;-75
2023/10/14 06:29:45;;;;;;;10.93;2.20;;;12.20;99.90;;;;;;5052815;28;20397;-75
2023/10/14 06:32:31;;;;;;;12.20;3.13;;;12.20;99.90;;;;;;5039519;28;20072;-75
2023/10/14 06:35:17;;;;;;;12.18;2.25;;;12.20;99.90;;;;;;5061418;28;20380;-75
2023/10/14 06:38:04;;;;;;;9.75;2.10;;;12.10;99.90;;;;;;5053277;28;20437;-75
2023/10/14 06:40:53;;;;;;;12.57;2.47;;;12.20;99.90;;;;;;5068004;28;20121;-75
2023/10/14 06:43:43;;;;;;;12.52;2.67;;;12.20;99.90;;;;;;5047517;28;20041;-75
2023/10/14 06:46:30;;;;;;;10.50;2.85;;;12.20;99.90;;;;;;5078172;28;20581;-75
2023/10/14 06:49:16;;;;;;;12.20;2.67;;;12.10;99.90;;;;;;5089999;28;20357;-75
2023/10/14 06:52:04;;;;;;;11.57;2.60;;;12.10;99.90;;;;;;5075996;28;20478;-74
2023/10/14 06:54:53;;;;;;;14.65;2.13;;;12.10;99.90;;;;;;5078740;28;20050;-74
2023/10/14 06:57:42;;;;;;;9.57;2.03;;;12.20;99.90;;;;;;5107141;28;20352;-75
2023/10/14 07:00:30;;;;;;;13.73;2.42;;;12.20;99.90;;;;;;5108313;28;20081;-75
2023/10/14 07:03:17;;;;;;;11.15;2.38;;;12.10;99.90;;;;;;5073106;28;20040;-74
2023/10/14 07:06:04;;;;;;;11.50;2.08;;;12.10;99.90;;;;;;5080453;28;20366;-75
2023/10/14 07:08:50;;;;;;;10.63;2.13;;;12.20;99.90;;;;;;5084451;28;20421;-74
2023/10/14 07:11:37;;;;;;;13.23;2.15;;;12.20;99.90;;;;;;5087195;28;20089;-74
2023/10/14 07:14:24;;;;;;;10.90;2.17;;;12.20;99.90;;;;;;5075435;28;20150;-74
2023/10/14 07:17:12;;;;;;;13.95;1.98;;;12.20;99.90;;;;;;5075414;28;20044;-75
2023/10/14 07:19:58;;;;;;;10.05;1.75;;;12.20;99.90;;;;;;5090678;28;20097;-75
2023/10/14 07:22:44;;;;;;;12.10;2.10;;;12.20;99.90;;;;;;5077509;28;20040;-74
2023/10/14 07:25:35;;;;;;;12.85;1.95;;;12.30;99.90;;;;;;5077824;28;20047;-74
2023/10/14 07:28:23;;;;;;;8.50;1.85;;;12.30;99.90;;;;;;5069176;28;20050;-75
2023/10/14 07:31:13;;;;;;;10.57;2.25;;;12.30;99.90;;;;;;5085799;28;20044;-75
2023/10/14 07:34:02;;;;;;;13.65;2.10;;;12.30;99.90;;;;;;5079237;28;20040;-75
2023/10/14 07:36:50;;;;;;;12.20;2.10;;;12.40;99.90;;;;;;5085199;28;20039;-74
2023/10/14 07:39:36;;;;;;;16.85;2.70;;;12.40;99.90;;;;;;5079346;28;20035;-74
2023/10/14 07:42:22;;;;;;;11.75;1.83;;;12.40;99.90;;;;;;5088939;28;20115;-74
2023/10/14 07:45:10;;;;;;;12.10;1.90;;;12.40;99.90;;;;;;5077938;28;20445;-74
2023/10/14 07:47:57;;;;;;;14.13;2.33;;;12.50;99.90;;;;;;5061841;28;20568;-74
2023/10/14 07:50:48;;;;;;;13.40;2.22;;;12.50;99.90;;;;;;5049464;28;20493;-74
2023/10/14 07:53:35;;;;;;;11.27;2.15;;;12.50;99.90;;;;;;5058374;28;20047;-75
2023/10/14 07:56:23;;;;;;;9.77;1.45;;;12.60;99.90;;;;;;5070315;28;20041;-74
2023/10/14 07:59:09;;;;;;;13.35;2.38;;;12.60;99.90;;;;;;5061824;28;20045;-74
2023/10/14 08:01:55;;;;;;;14.02;2.25;;;12.60;99.90;;;;;;5047371;28;20110;-74
2023/10/14 08:04:45;;;;;;;15.85;2.88;;;12.60;99.90;;;;;;5047608;28;20440;-74
2023/10/14 08:07:34;;;;;;;13.15;2.15;;;12.70;99.90;;;;;;5054501;28;20045;-74
2023/10/14 08:10:21;;;;;;;14.27;1.85;;;12.70;99.90;;;;;;5067015;28;20032;-74
2023/10/14 08:13:08;;;;;;;11.77;2.08;;;12.70;99.90;;;;;;5068340;28;20036;-74
2023/10/14 08:15:55;;;;;;;12.65;2.60;;;12.80;99.90;;;;;;5042152;28;20124;-74
2023/10/14 08:18:41;;;;;;;15.18;2.53;;;12.80;99.90;;;;;;5064574;28;20070;-74
2023/10/14 08:21:27;;;;;;;10.73;2.22;;;12.80;99.90;;;;;;5069347;28;20037;-74
2023/10/14 08:24:14;;;;;;;12.10;2.40;;;12.90;99.90;;;;;;5047778;28;20053;-73
2023/10/14 08:27:04;;;;;;;13.47;2.77;;;12.90;99.90;;;;;;5063172;28;20032;-73
2023/10/14 08:29:53;;;;;;;11.27;2.40;;;12.90;99.90;;;;;;5067756;28;20036;-72
2023/10/14 08:32:40;;;;;;;9.65;2.38;;;12.90;99.90;;;;;;5053937;28;20544;-72
2023/10/14 08:35:29;;;;;;;15.60;2.17;;;13.00;99.90;;;;;;5059186;28;20098;-72
2023/10/14 08:38:17;;;;;;;7.25;1.90;;;12.90;99.90;;;;;;5068566;28;20044;-72
2023/10/14 08:41:03;;;;;;;9.10;2.22;;;13.00;99.90;;;;;;5055360;28;20124;-72
2023/10/14 08:43:49;;;;;;;15.07;2.53;;;13.10;99.90;;;;;;5066924;28;20059;-72
2023/10/14 08:46:39;;;;;;;12.82;2.53;;;13.10;99.90;;;;;;5066397;28;20062;-73
2023/10/14 08:49:28;;;;;;;15.27;2.13;;;13.20;99.90;;;;;;5101648;28;20039;-72
2023/10/14 08:52:16;;;;;;;12.68;2.38;;;13.20;99.90;;;;;;5092323;28;20122;-73
2023/10/14 08:55:02;;;;;;;19.85;2.67;;;13.30;99.90;;;;;;5074062;28;20039;-72
2023/10/14 08:57:49;;;;;;;16.55;2.35;;;13.30;99.90;;;;;;5078936;28;20035;-72
2023/10/14 09:00:36;;;;;;;14.23;2.25;;;13.30;99.90;;;;;;5091075;28;20491;-72
2023/10/14 09:03:24;;;;;;;10.38;2.80;;;13.30;99.90;;;;;;5093446;28;20422;-72
2023/10/14 09:06:11;;;;;;;15.35;1.98;;;13.30;99.90;;;;;;5090937;28;20039;-72
2023/10/14 09:08:57;;;;;;;14.70;2.47;;;13.20;99.90;;;;;;5075328;28;20046;-72
2023/10/14 09:11:43;;;;;;;12.75;2.17;;;13.30;99.90;;;;;;5077941;28;20044;-72
2023/10/14 09:14:29;;;;;;;17.45;2.85;;;13.20;99.90;;;;;;5095944;28;20446;-72
2023/10/14 09:17:15;;;;;;;13.68;2.38;;;13.30;99.90;;;;;;5078259;28;20036;-72
2023/10/14 09:20:01;;;;;;;9.07;1.92;;;13.20;99.90;;;;;;5064429;28;20070;-72
2023/10/14 09:22:47;;;;;;;13.48;2.47;;;13.30;99.90;;;;;;5063178;28;20036;-72
2023/10/14 09:25:33;;;;;;;12.13;1.95;;;13.40;99.90;;;;;;5069249;28;20119;-72
2023/10/14 09:28:20;;;;;;;12.35;2.20;;;13.40;99.90;;;;;;5080648;28;20047;-72
2023/10/14 09:31:08;;;;;;;11.20;2.37;;;13.50;99.90;;;;;;5067340;28;20125;-72
2023/10/14 09:33:54;;;;;;;13.98;2.42;;;13.50;99.90;;;;;;5067813;28;20035;-72
2023/10/14 09:36:43;;;;;;;13.35;2.05;;;13.50;99.90;;;;;;5082952;28;20372;-72
2023/10/14 09:39:29;;;;;;;11.57;2.03;;;13.70;99.90;;;;;;5090437;28;20090;-74
2023/10/14 09:42:15;;;;;;;9.63;2.03;;;13.60;99.90;;;;;;5055086;28;20043;-74
2023/10/14 09:45:10;;;;;;;17.48;2.53;;;13.60;99.90;;;;;;5091168;28;20043;-74
2023/10/14 09:47:57;;;;;;;13.50;2.38;;;13.70;99.90;;;;;;5046413;28;20429;-74
2023/10/14 09:50:44;;;;;;;12.20;2.50;;;13.60;99.90;;;;;;5038438;28;20047;-74
2023/10/14 09:53:34;;;;;;;17.15;2.47;;;13.70;99.90;;;;;;5050259;28;20535;-74
2023/10/14 09:56:21;;;;;;;10.43;2.28;;;13.90;99.90;;;;;;5044499;28;20385;-74
2023/10/14 09:59:08;;;;;;;13.70;3.25;;;13.90;99.90;;;;;;5040145;28;20079;-74
2023/10/14 10:01:54;;;;;;;13.57;2.28;;;14.00;99.90;;;;;;5036788;28;20043;-74
2023/10/14 10:04:42;;;;;;;11.55;2.10;;;14.10;99.90;;;;;;5046636;28;20040;-74
2023/10/14 10:07:51;;;;;;;;;;;14.20;99.90;;;;;;5046212;28;20047;-75
2023/10/14 10:10:37;;;;;;;12.82;2.33;;;14.20;99.90;;;;;;5070717;28;19999;-74
2023/10/14 10:13:27;;;;;;;13.82;2.47;;;14.40;99.90;;;;;;5072005;28;20051;-74
2023/10/14 10:16:13;;;;;;;17.05;2.42;;;14.50;99.90;;;;;;5044242;28;20354;-75
2023/10/14 10:19:00;;;;;;;10.82;2.13;;;14.60;99.90;;;;;;5054163;28;20376;-75
2023/10/14 10:22:17;;;;;;;9.95;2.28;;;14.90;99.90;;;;;;5046165;28;20036;-75
2023/10/14 10:25:04;;;;;;;15.93;2.45;;;15.00;99.90;;;;;;5051873;28;20474;-75
2023/10/14 10:27:52;;;;;;;11.77;2.35;;;15.10;99.90;;;;;;5039855;28;20131;-75
2023/10/14 10:30:47;;;;;;;13.30;3.03;;;14.90;99.90;;;;;;5052330;28;20094;-74
2023/10/14 10:33:51;;;;;;;10.20;1.67;;;14.60;99.90;;;;;;5040121;28;20100;-74
2023/10/14 10:36:38;;;;;;;10.15;1.70;;;14.70;99.90;;;;;;5055317;28;20429;-75
2023/10/14 10:39:26;;;;;;;9.45;1.95;;;14.80;99.90;;;;;;5063864;28;20481;-74
2023/10/14 10:42:12;;;;;;;11.23;2.25;;;15.00;99.50;;;;;;5044032;28;20036;-75
2023/10/14 10:45:01;;;;;;;11.38;2.45;;;14.90;99.90;;;;;;5072855;28;20465;-75
2023/10/14 10:47:58;;;;;;;15.52;3.10;;;15.20;99.90;;;;;;5076011;28;20489;-76
2023/10/14 10:50:50;;;;;;;11.88;2.50;;;15.60;99.90;;;;;;5077693;28;20044;-76
2023/10/14 10:53:37;;;;;;;10.32;2.35;;;16.00;99.70;;;;;;5066307;28;20221;-76
2023/10/14 10:56:26;;;;;;;12.43;2.15;;;16.10;99.30;;;;;;5079882;28;20322;-75
2023/10/14 10:59:14;;;;;;;;;;;15.70;97.90;;;;;;5075261;28;20051;-76
2023/10/14 11:02:02;;;;;;;11.07;2.33;;;15.60;97.60;;;;;;5089637;28;19944;-76
2023/10/14 11:04:48;;;;;;;12.93;2.33;;;15.70;96.90;;;;;;5058899;28;20059;-76
2023/10/14 11:07:34;;;;;;;11.20;1.95;;;;;;;;;;5075355;28;20039;-75
2023/10/14 11:10:25;;;;;;;11.25;2.28;;;;;;;;;;5089518;28;20136;-75
2023/10/14 11:13:12;;;;;;;10.57;2.00;;;;;;;;;;5085589;28;20031;-76
2023/10/14 11:15:59;;;;;;;8.98;2.03;;;;;;;;;;5068490;28;20048;-76
2023/10/14 11:18:48;;;;;;;12.25;2.42;;;;;;;;;;5071662;28;20472;-75
2023/10/14 11:21:37;;;;;;;8.27;1.80;;;;;;;;;;5084395;28;20059;-75
2023/10/14 11:24:24;;;;;;;13.93;2.10;;;;;;;;;;5077507;28;20036;-75
2023/10/14 11:27:10;;;;;;;12.60;2.33;;;;;;;;;;5070371;28;20484;-75
2023/10/14 11:29:56;;;;;;;8.27;1.83;;;;;;;;;;5086285;28;20372;-75
2023/10/14 11:32:47;;;;;;;9.32;2.10;;;;;;;;;;5067738;28;20044;-75
2023/10/14 11:35:39;;;;;;;9.77;1.95;;;;;;;;;;5085088;28;20793;-74
2023/10/14 11:38:32;;;;;;;8.65;2.53;;;;;;;;;;5083410;28;20128;-75
2023/10/14 11:41:20;;;;;;;9.73;2.08;;;;;;;;;;5080958;28;20068;-75
2023/10/14 11:44:09;;;;;;;11.07;2.42;;;;;;;;;;5080289;28;20495;-75
2023/10/14 11:46:57;;;;;;;9.45;1.95;;;;;;;;;;5080730;28;20048;-75
2023/10/14 11:49:46;;;;;;;10.55;1.77;;;14.30;98.10;;;;;;5063521;28;20047;-75
2023/10/14 11:52:32;;;;;;;11.68;2.25;;;14.40;97.60;;;;;;5049555;28;20791;-74
2023/10/14 11:55:20;;;;;;;7.85;1.90;;;14.70;97.90;;;;;;5065501;28;20120;-76
2023/10/14 11:58:05;;;;;;;9.10;2.15;;;15.10;97.80;;;;;;5029861;28;20519;-76
2023/10/14 12:00:51;;;;;;;8.82;2.08;;;15.50;96.50;;;;;;5058968;28;20045;-77
2023/10/14 12:03:38;;;;;;;10.88;2.08;;;15.90;95.90;;;;;;5070256;28;20051;-77
2023/10/14 12:06:24;;;;;;;11.07;2.15;;;15.90;94.80;;;;;;5064023;28;20094;-76
2023/10/14 12:09:10;;;;;;;9.77;1.70;;;16.20;94.70;;;;;;5054497;28;20040;-77
2023/10/14 12:11:56;;;;;;;10.63;1.92;;;16.20;94.30;;;;;;5062000;28;20037;-76
2023/10/14 12:14:42;;;;;;;10.05;2.33;;;16.30;93.60;;;;;;5045444;28;20066;-76
2023/10/14 12:17:28;;;;;;;7.05;1.88;;;16.50;93.70;;;;;;5054421;28;20166;-76
2023/10/14 12:20:14;;;;;;;7.63;2.05;;;16.90;93.00;;;;;;5068086;28;20076;-75
2023/10/14 12:23:01;;;;;;;7.35;1.65;;;16.90;91.70;;;;;;5066737;28;20143;-75
2023/10/14 12:25:48;;;;;;;8.23;1.80;;;17.20;91.20;;;;;;5047948;28;20478;-76
2023/10/14 12:28:34;;;;;;;12.02;1.80;;;17.40;91.60;;;;;;5051971;28;20476;-76
2023/10/14 12:31:20;;;;;;;9.68;1.83;;;17.40;91.20;;;;;;5058984;28;20496;-76
2023/10/14 12:34:08;;;;;;;6.57;1.60;;;17.30;91.80;;;;;;5070012;28;20059;-77
2023/10/14 12:36:54;;;;;;;9.68;2.03;;;17.40;91.30;;;;;;5051836;28;20543;-76
2023/10/14 12:39:44;;;;;;;7.32;1.60;;;17.30;91.40;;;;;;5048116;28;20036;-77
2023/10/14 12:42:45;;;;;;;13.23;2.97;;;17.30;90.80;;;;;;5065486;28;20063;-76
2023/10/14 12:45:32;;;;;;;12.43;2.20;;;17.80;90.30;;;;;;5041332;28;20115;-76
2023/10/14 12:48:24;;;;;;;6.00;1.40;;;17.30;90.50;;;;;;5085714;28;20148;-78
2023/10/14 12:51:30;;;;;;;11.60;2.10;;;17.20;91.50;;;;;;5087887;28;20512;-77
2023/10/14 12:54:19;;;;;;;10.05;1.70;;;17.30;90.70;;;;;;5074445;28;20108;-77
2023/10/14 12:57:07;;;;;;;7.72;1.90;;;17.30;91.20;;;;;;5075563;28;20079;-77
2023/10/14 12:59:53;;;;;;;8.38;1.92;;;17.60;91.40;;;;;;5075150;28;20039;-76
2023/10/14 13:02:39;;;;;;;9.85;2.10;;;17.40;90.60;;;;;;5083292;28;20123;-77
2023/10/14 13:05:27;;;;;;;12.77;3.53;;;17.20;89.50;;;;;;5074354;28;20036;-76
2023/10/14 13:08:18;;;;;;;11.17;1.57;;;17.10;90.80;;;;;;5093488;28;20043;-75
2023/10/14 13:11:04;;;;;;;7.60;2.40;;;17.10;90.50;;;;;;5084706;28;20341;-75
2023/10/14 13:13:52;;;;;;;8.82;1.98;;;16.90;91.10;;;;;;5065197;28;20070;-74
2023/10/14 13:16:38;;;;;;;8.88;2.78;;;16.90;91.40;;;;;;5073541;28;20047;-74
2023/10/14 13:19:24;;;;;;;10.00;2.00;;;17.10;91.00;;;;;;5070657;28;20047;-72
2023/10/14 13:22:12;;;;;;;15.05;2.45;;;16.70;91.50;;;;;;5067611;28;20079;-72
2023/10/14 13:24:58;;;;;;;6.75;1.70;;;16.60;91.80;;;;;;5085489;28;20052;-72
2023/10/14 13:27:44;;;;;;;13.25;2.33;;;16.20;91.90;;;;;;5064587;28;20036;-73
2023/10/14 13:30:29;;;;;;;8.13;1.92;;;16.10;92.20;;;;;;5087115;28;20039;-71
2023/10/14 13:33:19;;;;;;;14.23;2.42;;;16.10;93.30;;;;;;5093569;28;20036;-71
2023/10/14 13:36:09;;;;;;;8.82;2.00;;;16.00;93.30;;;;;;5068222;28;20518;-72
2023/10/14 13:38:55;;;;;;;12.00;2.45;;;15.70;93.80;;;;;;5095036;28;20797;-72
2023/10/14 13:41:43;;;;;;;8.80;1.80;;;15.50;93.10;;;;;;5077743;28;20130;-72
2023/10/14 13:44:29;;;;;;;;;;;15.60;93.70;;;;;;5080177;28;20040;-71
2023/10/14 13:47:17;;;;;;;9.77;1.70;;;15.30;91.80;;;;;;5091037;28;19934;-72
2023/10/14 13:50:04;;;;;;;;;;;15.30;92.60;;;;;;5073051;28;20062;-72
2023/10/14 13:52:57;;;;;;;11.48;1.58;;;15.30;92.60;;;;;;5092899;28;20315;-71
2023/10/14 13:55:44;;;;;;;9.30;1.83;;;15.20;92.20;;;;;;5083131;28;20040;-71
2023/10/14 13:58:30;;;;;;;6.53;1.60;;;14.90;92.70;;;;;;5093038;28;20074;-71
2023/10/14 14:01:18;;;;;;;14.35;2.53;;;14.70;93.00;;;;;;5088552;28;20122;-71
2023/10/14 14:04:07;;;;;;;9.05;1.75;;;14.60;93.30;;;;;;5078647;28;20035;-72
2023/10/14 14:06:54;;;;;;;3.33;1.05;;;14.50;93.90;;;;;;5065395;28;20053;-71
2023/10/14 14:09:40;;;;;;;4.47;1.17;;;14.00;95.70;;;;;;5072290;28;20059;-71
2023/10/14 14:12:27;;;;;;;6.45;1.38;;;13.40;97.10;;;;;;5089113;28;20036;-74
2023/10/14 14:15:14;;;;;;;5.60;0.95;;;13.10;98.10;;;;;;5055875;28;20116;-74
2023/10/14 14:18:00;;;;;;;3.33;0.98;;;12.90;99.00;;;;;;5092239;28;20384;-73
2023/10/14 14:20:49;;;;;;;6.18;1.10;;;12.80;99.50;;;;;;5078400;28;20374;-73
2023/10/14 14:23:35;;;;;;;3.80;1.20;;;12.90;99.90;;;;;;5061357;28;20124;-72
2023/10/14 14:26:23;;;;;;;5.82;1.30;;;12.90;99.90;;;;;;5068790;28;20458;-72
2023/10/14 14:29:10;;;;;;;13.07;1.27;;;12.90;99.90;;;;;;5065384;28;20352;-71
2023/10/14 14:31:58;;;;;;;5.57;1.45;;;13.00;99.90;;;;;;5083411;28;20031;-71
2023/10/14 14:34:44;;;;;;;6.57;1.45;;;13.00;99.90;;;;;;5093339;28;20044;-71
2023/10/14 14:37:32;;;;;;;7.28;1.58;;;12.90;99.90;;;;;;5105488;28;20048;-74
2023/10/14 14:40:24;;;;;;;4.45;1.10;;;12.90;99.90;;;;;;5079426;28;20043;-71
2023/10/14 14:43:10;;;;;;;4.40;1.05;;;12.60;99.90;;;;;;5072281;28;20044;-73
2023/10/14 14:45:57;;;;;;;6.07;1.60;;;12.20;99.90;;;;;;5086941;28;20126;-71
2023/10/14 14:48:43;;;;;;;7.72;1.30;;;12.00;99.90;;;;;;5080643;28;20055;-71
2023/10/14 14:51:29;;;;;;;4.55;1.25;;;11.80;99.90;;;;;;5067253;28;20460;-71
2023/10/14 14:54:18;;;;;;;7.47;1.63;;;11.80;99.90;;;;;;5094477;28;20079;-71